sensor_id;sensor_type;location;lat;lon;timestamp;P1;durP1;ratioP1;P2;durP2;ratioP2
13704;SDS011;6924;52.122;9.952;2023-04-06T00:02:26;7.03;;;5.07;;
13704;SDS011;6924;52.122;9.952;2023-04-06T00:04:53;5.63;;;5.13;;
13704;SDS011;6924;52.122;9.952;2023-04-06T00:07:19;5.07;;;4.63;;
13704;SDS011;6924;52.122;9.952;2023-04-06T00:09:45;5.10;;;4.70;;
13704;SDS011;6924;52.122;9.952;2023-04-06T00:12:12;5.30;;;4.80;;
13704;SDS011;6924;52.122;9.952;2023-04-06T00:14:38;4.70;;;4.13;;
13704;SDS011;6924;52.122;9.952;2023-04-06T00:17:05;5.77;;;5.27;;
13704;SDS011;6924;52.122;9.952;2023-04-06T00:19:33;5.97;;;5.33;;
13704;SDS011;6924;52.122;9.952;2023-04-06T00:21:59;6.13;;;5.60;;
13704;SDS011;6924;52.122;9.952;2023-04-06T00:24:27;6.27;;;5.67;;
13704;SDS011;6924;52.122;9.952;2023-04-06T00:26:53;7.37;;;6.67;;
13704;SDS011;6924;52.122;9.952;2023-04-06T00:29:20;6.57;;;5.97;;
13704;SDS011;6924;52.122;9.952;2023-04-06T00:31:46;7.00;;;6.30;;
13704;SDS011;6924;52.122;9.952;2023-04-06T00:34:13;10.50;;;6.80;;
13704;SDS011;6924;52.122;9.952;2023-04-06T00:36:41;6.63;;;6.00;;
13704;SDS011;6924;52.122;9.952;2023-04-06T00:39:07;9.37;;;5.67;;
13704;SDS011;6924;52.122;9.952;2023-04-06T00:41:34;5.93;;;5.43;;
13704;SDS011;6924;52.122;9.952;2023-04-06T00:44:00;7.80;;;7.10;;
13704;SDS011;6924;52.122;9.952;2023-04-06T00:46:26;6.73;;;6.13;;
13704;SDS011;6924;52.122;9.952;2023-04-06T00:48:54;6.77;;;6.07;;
13704;SDS011;6924;52.122;9.952;2023-04-06T00:51:20;7.47;;;6.30;;
13704;SDS011;6924;52.122;9.952;2023-04-06T00:53:48;6.77;;;6.17;;
13704;SDS011;6924;52.122;9.952;2023-04-06T00:56:15;7.10;;;6.07;;
13704;SDS011;6924;52.122;9.952;2023-04-06T00:58:41;6.33;;;5.77;;
13704;SDS011;6924;52.122;9.952;2023-04-06T01:01:07;6.60;;;6.00;;
13704;SDS011;6924;52.122;9.952;2023-04-06T01:03:34;7.60;;;5.67;;
13704;SDS011;6924;52.122;9.952;2023-04-06T01:06:00;6.80;;;6.07;;
13704;SDS011;6924;52.122;9.952;2023-04-06T01:08:27;6.77;;;6.20;;
13704;SDS011;6924;52.122;9.952;2023-04-06T01:10:55;5.80;;;5.40;;
13704;SDS011;6924;52.122;9.952;2023-04-06T01:13:21;5.87;;;5.27;;
13704;SDS011;6924;52.122;9.952;2023-04-06T01:15:48;5.80;;;5.27;;
13704;SDS011;6924;52.122;9.952;2023-04-06T01:18:15;5.97;;;5.37;;
13704;SDS011;6924;52.122;9.952;2023-04-06T01:20:41;6.43;;;5.40;;
13704;SDS011;6924;52.122;9.952;2023-04-06T01:23:09;5.80;;;5.00;;
13704;SDS011;6924;52.122;9.952;2023-04-06T01:25:35;6.37;;;4.17;;
13704;SDS011;6924;52.122;9.952;2023-04-06T01:28:02;5.43;;;4.93;;
13704;SDS011;6924;52.122;9.952;2023-04-06T01:30:28;6.80;;;4.50;;
13704;SDS011;6924;52.122;9.952;2023-04-06T01:32:55;4.83;;;3.70;;
13704;SDS011;6924;52.122;9.952;2023-04-06T01:35:21;4.13;;;3.83;;
13704;SDS011;6924;52.122;9.952;2023-04-06T01:37:48;6.27;;;3.87;;
13704;SDS011;6924;52.122;9.952;2023-04-06T01:40:16;4.57;;;4.17;;
13704;SDS011;6924;52.122;9.952;2023-04-06T01:42:42;4.57;;;4.10;;
13704;SDS011;6924;52.122;9.952;2023-04-06T01:45:09;4.07;;;3.73;;
13704;SDS011;6924;52.122;9.952;2023-04-06T01:47:35;4.40;;;3.97;;
13704;SDS011;6924;52.122;9.952;2023-04-06T01:50:02;4.47;;;4.07;;
13704;SDS011;6924;52.122;9.952;2023-04-06T01:52:31;12.17;;;5.80;;
13704;SDS011;6924;52.122;9.952;2023-04-06T01:54:57;4.70;;;4.30;;
13704;SDS011;6924;52.122;9.952;2023-04-06T01:57:25;5.43;;;5.00;;
13704;SDS011;6924;52.122;9.952;2023-04-06T01:59:51;4.07;;;3.60;;
13704;SDS011;6924;52.122;9.952;2023-04-06T02:02:18;5.63;;;3.90;;
13704;SDS011;6924;52.122;9.952;2023-04-06T02:04:44;3.93;;;3.60;;
13704;SDS011;6924;52.122;9.952;2023-04-06T02:07:10;4.90;;;4.50;;
13704;SDS011;6924;52.122;9.952;2023-04-06T02:09:37;4.60;;;4.17;;
13704;SDS011;6924;52.122;9.952;2023-04-06T02:12:03;4.37;;;4.03;;
13704;SDS011;6924;52.122;9.952;2023-04-06T02:14:32;7.03;;;4.00;;
13704;SDS011;6924;52.122;9.952;2023-04-06T02:16:58;4.17;;;3.77;;
13704;SDS011;6924;52.122;9.952;2023-04-06T02:19:25;4.50;;;4.20;;
13704;SDS011;6924;52.122;9.952;2023-04-06T02:21:51;4.57;;;4.07;;
13704;SDS011;6924;52.122;9.952;2023-04-06T02:24:18;4.73;;;4.33;;
13704;SDS011;6924;52.122;9.952;2023-04-06T02:26:44;6.43;;;4.83;;
13704;SDS011;6924;52.122;9.952;2023-04-06T02:29:11;4.67;;;4.23;;
13704;SDS011;6924;52.122;9.952;2023-04-06T02:31:38;5.17;;;4.67;;
13704;SDS011;6924;52.122;9.952;2023-04-06T02:34:05;6.00;;;4.67;;
13704;SDS011;6924;52.122;9.952;2023-04-06T02:36:32;4.80;;;4.30;;
13704;SDS011;6924;52.122;9.952;2023-04-06T02:38:58;5.37;;;4.50;;
13704;SDS011;6924;52.122;9.952;2023-04-06T02:41:24;5.30;;;4.27;;
13704;SDS011;6924;52.122;9.952;2023-04-06T02:43:51;6.23;;;5.20;;
13704;SDS011;6924;52.122;9.952;2023-04-06T02:46:18;4.80;;;4.40;;
13704;SDS011;6924;52.122;9.952;2023-04-06T02:48:45;5.50;;;4.67;;
13704;SDS011;6924;52.122;9.952;2023-04-06T02:51:12;5.43;;;4.20;;
13704;SDS011;6924;52.122;9.952;2023-04-06T02:53:38;5.23;;;4.73;;
13704;SDS011;6924;52.122;9.952;2023-04-06T02:56:05;5.57;;;4.50;;
13704;SDS011;6924;52.122;9.952;2023-04-06T02:58:32;5.27;;;3.90;;
13704;SDS011;6924;52.122;9.952;2023-04-06T03:00:58;10.40;;;4.77;;
13704;SDS011;6924;52.122;9.952;2023-04-06T03:03:24;5.03;;;4.20;;
13704;SDS011;6924;52.122;9.952;2023-04-06T03:05:52;4.80;;;4.40;;
13704;SDS011;6924;52.122;9.952;2023-04-06T03:08:21;10.80;;;4.50;;
13704;SDS011;6924;52.122;9.952;2023-04-06T03:10:47;5.43;;;4.20;;
13704;SDS011;6924;52.122;9.952;2023-04-06T03:13:14;4.60;;;4.20;;
13704;SDS011;6924;52.122;9.952;2023-04-06T03:15:40;4.77;;;4.37;;
13704;SDS011;6924;52.122;9.952;2023-04-06T03:18:06;4.60;;;4.20;;
13704;SDS011;6924;52.122;9.952;2023-04-06T03:20:33;7.33;;;5.07;;
13704;SDS011;6924;52.122;9.952;2023-04-06T03:23:01;4.80;;;4.40;;
13704;SDS011;6924;52.122;9.952;2023-04-06T03:25:27;6.53;;;4.37;;
13704;SDS011;6924;52.122;9.952;2023-04-06T03:27:55;4.83;;;4.27;;
13704;SDS011;6924;52.122;9.952;2023-04-06T03:30:21;4.80;;;4.40;;
13704;SDS011;6924;52.122;9.952;2023-04-06T03:32:47;8.33;;;4.27;;
13704;SDS011;6924;52.122;9.952;2023-04-06T03:35:14;4.13;;;3.77;;
13704;SDS011;6924;52.122;9.952;2023-04-06T03:37:40;5.00;;;4.50;;
13704;SDS011;6924;52.122;9.952;2023-04-06T03:40:09;4.60;;;4.20;;
13704;SDS011;6924;52.122;9.952;2023-04-06T03:42:36;4.87;;;4.47;;
13704;SDS011;6924;52.122;9.952;2023-04-06T03:45:02;4.83;;;4.37;;
13704;SDS011;6924;52.122;9.952;2023-04-06T03:47:29;5.37;;;4.97;;
13704;SDS011;6924;52.122;9.952;2023-04-06T03:49:56;5.70;;;4.67;;
13704;SDS011;6924;52.122;9.952;2023-04-06T03:52:22;5.10;;;4.63;;
13704;SDS011;6924;52.122;9.952;2023-04-06T03:54:48;6.07;;;4.43;;
13704;SDS011;6924;52.122;9.952;2023-04-06T03:57:16;5.37;;;4.77;;
13704;SDS011;6924;52.122;9.952;2023-04-06T03:59:43;4.93;;;4.43;;
13704;SDS011;6924;52.122;9.952;2023-04-06T04:02:09;4.73;;;4.33;;
13704;SDS011;6924;52.122;9.952;2023-04-06T04:04:35;4.60;;;4.20;;
13704;SDS011;6924;52.122;9.952;2023-04-06T04:07:02;4.80;;;4.37;;
13704;SDS011;6924;52.122;9.952;2023-04-06T04:09:28;5.77;;;4.60;;
13704;SDS011;6924;52.122;9.952;2023-04-06T04:11:55;5.53;;;4.90;;
13704;SDS011;6924;52.122;9.952;2023-04-06T04:14:22;6.40;;;4.57;;
13704;SDS011;6924;52.122;9.952;2023-04-06T04:16:49;5.47;;;4.97;;
13704;SDS011;6924;52.122;9.952;2023-04-06T04:19:15;7.43;;;4.57;;
13704;SDS011;6924;52.122;9.952;2023-04-06T04:21:42;6.80;;;4.43;;
13704;SDS011;6924;52.122;9.952;2023-04-06T04:24:10;6.20;;;5.50;;
13704;SDS011;6924;52.122;9.952;2023-04-06T04:26:36;5.30;;;4.83;;
13704;SDS011;6924;52.122;9.952;2023-04-06T04:29:04;5.70;;;5.20;;
13704;SDS011;6924;52.122;9.952;2023-04-06T04:31:32;5.73;;;5.23;;
13704;SDS011;6924;52.122;9.952;2023-04-06T04:33:59;5.13;;;4.63;;
13704;SDS011;6924;52.122;9.952;2023-04-06T04:36:26;5.50;;;5.07;;
13704;SDS011;6924;52.122;9.952;2023-04-06T04:38:53;6.20;;;5.03;;
13704;SDS011;6924;52.122;9.952;2023-04-06T04:41:19;6.07;;;5.40;;
13704;SDS011;6924;52.122;9.952;2023-04-06T04:43:45;5.77;;;5.27;;
13704;SDS011;6924;52.122;9.952;2023-04-06T04:46:12;5.07;;;4.67;;
13704;SDS011;6924;52.122;9.952;2023-04-06T04:48:39;6.40;;;5.80;;
13704;SDS011;6924;52.122;9.952;2023-04-06T04:51:06;5.70;;;5.20;;
13704;SDS011;6924;52.122;9.952;2023-04-06T04:53:32;5.30;;;4.90;;
13704;SDS011;6924;52.122;9.952;2023-04-06T04:55:59;6.23;;;5.63;;
13704;SDS011;6924;52.122;9.952;2023-04-06T04:58:25;6.07;;;5.47;;
13704;SDS011;6924;52.122;9.952;2023-04-06T05:00:51;5.87;;;5.37;;
13704;SDS011;6924;52.122;9.952;2023-04-06T05:03:19;5.37;;;4.87;;
13704;SDS011;6924;52.122;9.952;2023-04-06T05:05:49;6.03;;;5.50;;
13704;SDS011;6924;52.122;9.952;2023-04-06T05:08:15;7.03;;;5.77;;
13704;SDS011;6924;52.122;9.952;2023-04-06T05:10:42;6.43;;;5.33;;
13704;SDS011;6924;52.122;9.952;2023-04-06T05:13:09;5.80;;;5.30;;
13704;SDS011;6924;52.122;9.952;2023-04-06T05:15:35;6.63;;;6.03;;
13704;SDS011;6924;52.122;9.952;2023-04-06T05:18:03;5.77;;;5.27;;
13704;SDS011;6924;52.122;9.952;2023-04-06T05:20:29;6.03;;;5.53;;
13704;SDS011;6924;52.122;9.952;2023-04-06T05:22:57;6.90;;;5.50;;
13704;SDS011;6924;52.122;9.952;2023-04-06T05:25:24;5.40;;;5.00;;
13704;SDS011;6924;52.122;9.952;2023-04-06T05:27:50;6.63;;;5.33;;
13704;SDS011;6924;52.122;9.952;2023-04-06T05:30:17;5.83;;;5.33;;
13704;SDS011;6924;52.122;9.952;2023-04-06T05:32:43;6.47;;;5.03;;
13704;SDS011;6924;52.122;9.952;2023-04-06T05:35:10;6.47;;;5.30;;
13704;SDS011;6924;52.122;9.952;2023-04-06T05:37:37;8.17;;;5.87;;
13704;SDS011;6924;52.122;9.952;2023-04-06T05:40:06;6.47;;;5.73;;
13704;SDS011;6924;52.122;9.952;2023-04-06T05:42:35;6.13;;;5.50;;
13704;SDS011;6924;52.122;9.952;2023-04-06T05:45:03;5.53;;;5.03;;
13704;SDS011;6924;52.122;9.952;2023-04-06T05:47:30;6.27;;;5.67;;
13704;SDS011;6924;52.122;9.952;2023-04-06T05:49:56;8.67;;;5.97;;
13704;SDS011;6924;52.122;9.952;2023-04-06T05:52:22;6.03;;;5.43;;
13704;SDS011;6924;52.122;9.952;2023-04-06T05:54:49;5.73;;;5.23;;
13704;SDS011;6924;52.122;9.952;2023-04-06T05:57:17;6.47;;;5.50;;
13704;SDS011;6924;52.122;9.952;2023-04-06T05:59:43;7.27;;;5.80;;
13704;SDS011;6924;52.122;9.952;2023-04-06T06:02:10;5.87;;;5.37;;
13704;SDS011;6924;52.122;9.952;2023-04-06T06:04:36;5.40;;;4.90;;
13704;SDS011;6924;52.122;9.952;2023-04-06T06:07:03;6.37;;;5.67;;
13704;SDS011;6924;52.122;9.952;2023-04-06T06:09:30;7.90;;;5.40;;
13704;SDS011;6924;52.122;9.952;2023-04-06T06:11:56;7.27;;;6.07;;
13704;SDS011;6924;52.122;9.952;2023-04-06T06:14:24;6.27;;;5.67;;
13704;SDS011;6924;52.122;9.952;2023-04-06T06:16:53;5.47;;;4.73;;
13704;SDS011;6924;52.122;9.952;2023-04-06T06:19:19;6.57;;;5.37;;
13704;SDS011;6924;52.122;9.952;2023-04-06T06:21:46;7.63;;;4.83;;
13704;SDS011;6924;52.122;9.952;2023-04-06T06:24:12;5.00;;;4.60;;
13704;SDS011;6924;52.122;9.952;2023-04-06T06:26:39;5.37;;;4.60;;
13704;SDS011;6924;52.122;9.952;2023-04-06T06:29:05;5.07;;;4.67;;
13704;SDS011;6924;52.122;9.952;2023-04-06T06:31:33;5.63;;;4.47;;
13704;SDS011;6924;52.122;9.952;2023-04-06T06:34:00;4.60;;;4.10;;
13704;SDS011;6924;52.122;9.952;2023-04-06T06:36:27;7.73;;;4.90;;
13704;SDS011;6924;52.122;9.952;2023-04-06T06:38:53;4.63;;;4.17;;
13704;SDS011;6924;52.122;9.952;2023-04-06T06:41:19;10.87;;;5.17;;
13704;SDS011;6924;52.122;9.952;2023-04-06T06:43:46;5.30;;;4.90;;
13704;SDS011;6924;52.122;9.952;2023-04-06T06:46:12;4.80;;;4.40;;
13704;SDS011;6924;52.122;9.952;2023-04-06T06:48:40;5.17;;;4.13;;
13704;SDS011;6924;52.122;9.952;2023-04-06T06:51:06;4.17;;;3.77;;
13704;SDS011;6924;52.122;9.952;2023-04-06T06:53:34;5.63;;;5.00;;
13704;SDS011;6924;52.122;9.952;2023-04-06T06:56:01;5.30;;;4.80;;
13704;SDS011;6924;52.122;9.952;2023-04-06T06:58:27;5.27;;;4.27;;
13704;SDS011;6924;52.122;9.952;2023-04-06T07:00:55;4.33;;;4.00;;
13704;SDS011;6924;52.122;9.952;2023-04-06T07:03:22;4.73;;;4.43;;
13704;SDS011;6924;52.122;9.952;2023-04-06T07:05:49;4.23;;;3.93;;
13704;SDS011;6924;52.122;9.952;2023-04-06T07:08:18;4.50;;;3.87;;
13704;SDS011;6924;52.122;9.952;2023-04-06T07:10:45;6.17;;;3.93;;
13704;SDS011;6924;52.122;9.952;2023-04-06T07:13:12;4.30;;;3.87;;
13704;SDS011;6924;52.122;9.952;2023-04-06T07:15:43;4.53;;;4.13;;
13704;SDS011;6924;52.122;9.952;2023-04-06T07:18:09;5.70;;;5.20;;
13704;SDS011;6924;52.122;9.952;2023-04-06T07:20:36;3.93;;;3.63;;
13704;SDS011;6924;52.122;9.952;2023-04-06T07:23:03;4.03;;;3.73;;
13704;SDS011;6924;52.122;9.952;2023-04-06T07:25:30;4.43;;;4.00;;
13704;SDS011;6924;52.122;9.952;2023-04-06T07:27:56;4.30;;;3.77;;
13704;SDS011;6924;52.122;9.952;2023-04-06T07:30:23;4.50;;;4.10;;
13704;SDS011;6924;52.122;9.952;2023-04-06T07:32:51;4.17;;;3.87;;
13704;SDS011;6924;52.122;9.952;2023-04-06T07:35:17;4.97;;;4.20;;
13704;SDS011;6924;52.122;9.952;2023-04-06T07:37:44;4.00;;;3.67;;
13704;SDS011;6924;52.122;9.952;2023-04-06T07:40:12;4.20;;;3.80;;
13704;SDS011;6924;52.122;9.952;2023-04-06T07:42:38;4.53;;;4.13;;
13704;SDS011;6924;52.122;9.952;2023-04-06T07:45:05;7.40;;;3.83;;
13704;SDS011;6924;52.122;9.952;2023-04-06T07:47:32;5.33;;;4.37;;
13704;SDS011;6924;52.122;9.952;2023-04-06T07:49:59;4.90;;;4.03;;
13704;SDS011;6924;52.122;9.952;2023-04-06T07:52:25;4.57;;;4.27;;
13704;SDS011;6924;52.122;9.952;2023-04-06T07:54:52;4.60;;;4.20;;
13704;SDS011;6924;52.122;9.952;2023-04-06T07:57:19;4.47;;;4.07;;
13704;SDS011;6924;52.122;9.952;2023-04-06T07:59:46;4.30;;;3.90;;
13704;SDS011;6924;52.122;9.952;2023-04-06T08:02:12;4.63;;;4.23;;
13704;SDS011;6924;52.122;9.952;2023-04-06T08:04:38;4.50;;;4.17;;
13704;SDS011;6924;52.122;9.952;2023-04-06T08:07:05;4.23;;;3.93;;
13704;SDS011;6924;52.122;9.952;2023-04-06T08:09:31;4.10;;;3.70;;
13704;SDS011;6924;52.122;9.952;2023-04-06T08:11:58;4.73;;;4.27;;
13704;SDS011;6924;52.122;9.952;2023-04-06T08:14:26;4.10;;;3.80;;
13704;SDS011;6924;52.122;9.952;2023-04-06T08:16:52;4.90;;;3.93;;
13704;SDS011;6924;52.122;9.952;2023-04-06T08:19:18;3.63;;;3.33;;
13704;SDS011;6924;52.122;9.952;2023-04-06T08:21:45;4.03;;;3.63;;
13704;SDS011;6924;52.122;9.952;2023-04-06T08:24:12;4.67;;;4.17;;
13704;SDS011;6924;52.122;9.952;2023-04-06T08:26:38;4.53;;;4.13;;
13704;SDS011;6924;52.122;9.952;2023-04-06T08:29:05;4.63;;;4.30;;
13704;SDS011;6924;52.122;9.952;2023-04-06T08:31:33;4.80;;;4.40;;
13704;SDS011;6924;52.122;9.952;2023-04-06T08:34:00;4.90;;;4.47;;
13704;SDS011;6924;52.122;9.952;2023-04-06T08:36:26;4.53;;;4.23;;
13704;SDS011;6924;52.122;9.952;2023-04-06T08:38:53;4.20;;;3.90;;
13704;SDS011;6924;52.122;9.952;2023-04-06T08:41:19;4.83;;;3.93;;
13704;SDS011;6924;52.122;9.952;2023-04-06T08:43:46;4.57;;;4.18;;
13704;SDS011;6924;52.122;9.952;2023-04-06T08:46:14;3.97;;;3.67;;
13704;SDS011;6924;52.122;9.952;2023-04-06T08:48:43;3.90;;;3.53;;
13704;SDS011;6924;52.122;9.952;2023-04-06T08:51:10;4.07;;;3.70;;
13704;SDS011;6924;52.122;9.952;2023-04-06T08:53:36;4.00;;;3.70;;
13704;SDS011;6924;52.122;9.952;2023-04-06T08:56:03;4.20;;;3.83;;
13704;SDS011;6924;52.122;9.952;2023-04-06T08:58:32;5.83;;;3.93;;
13704;SDS011;6924;52.122;9.952;2023-04-06T09:01:05;4.83;;;4.33;;
13704;SDS011;6924;52.122;9.952;2023-04-06T09:03:34;6.17;;;4.10;;
13704;SDS011;6924;52.122;9.952;2023-04-06T09:06:05;5.30;;;4.80;;
13704;SDS011;6924;52.122;9.952;2023-04-06T09:08:32;4.80;;;4.30;;
13704;SDS011;6924;52.122;9.952;2023-04-06T09:10:59;4.80;;;4.40;;
13704;SDS011;6924;52.122;9.952;2023-04-06T09:13:26;4.07;;;3.77;;
13704;SDS011;6924;52.122;9.952;2023-04-06T09:15:59;3.87;;;3.57;;
13704;SDS011;6924;52.122;9.952;2023-04-06T09:18:30;4.77;;;4.37;;
13704;SDS011;6924;52.122;9.952;2023-04-06T09:20:57;5.20;;;4.70;;
13704;SDS011;6924;52.122;9.952;2023-04-06T09:23:26;4.97;;;4.57;;
13704;SDS011;6924;52.122;9.952;2023-04-06T09:26:02;4.93;;;4.47;;
13704;SDS011;6924;52.122;9.952;2023-04-06T09:28:40;5.03;;;4.63;;
13704;SDS011;6924;52.122;9.952;2023-04-06T09:31:07;5.77;;;4.80;;
13704;SDS011;6924;52.122;9.952;2023-04-06T09:33:36;5.63;;;4.27;;
13704;SDS011;6924;52.122;9.952;2023-04-06T09:36:04;5.33;;;4.80;;
13704;SDS011;6924;52.122;9.952;2023-04-06T09:38:32;4.67;;;4.37;;
13704;SDS011;6924;52.122;9.952;2023-04-06T09:40:58;4.47;;;4.07;;
13704;SDS011;6924;52.122;9.952;2023-04-06T09:43:24;5.40;;;4.93;;
13704;SDS011;6924;52.122;9.952;2023-04-06T09:45:52;4.90;;;4.50;;
13704;SDS011;6924;52.122;9.952;2023-04-06T09:48:19;4.93;;;4.50;;
13704;SDS011;6924;52.122;9.952;2023-04-06T09:50:47;5.93;;;4.57;;
13704;SDS011;6924;52.122;9.952;2023-04-06T09:53:14;8.50;;;4.27;;
13704;SDS011;6924;52.122;9.952;2023-04-06T09:55:44;4.33;;;3.93;;
13704;SDS011;6924;52.122;9.952;2023-04-06T09:58:12;4.93;;;4.50;;
13704;SDS011;6924;52.122;9.952;2023-04-06T10:00:44;4.60;;;4.20;;
13704;SDS011;6924;52.122;9.952;2023-04-06T10:03:18;5.00;;;4.53;;
13704;SDS011;6924;52.122;9.952;2023-04-06T10:05:54;5.03;;;4.63;;
13704;SDS011;6924;52.122;9.952;2023-04-06T10:08:23;4.70;;;4.23;;
13704;SDS011;6924;52.122;9.952;2023-04-06T10:10:54;3.60;;;3.30;;
13704;SDS011;6924;52.122;9.952;2023-04-06T10:13:21;5.13;;;3.87;;
13704;SDS011;6924;52.122;9.952;2023-04-06T10:15:49;4.97;;;4.40;;
13704;SDS011;6924;52.122;9.952;2023-04-06T10:18:17;7.53;;;4.70;;
13704;SDS011;6924;52.122;9.952;2023-04-06T10:20:46;4.47;;;3.70;;
13704;SDS011;6924;52.122;9.952;2023-04-06T10:23:19;4.83;;;4.10;;
13704;SDS011;6924;52.122;9.952;2023-04-06T10:25:54;4.40;;;4.00;;
13704;SDS011;6924;52.122;9.952;2023-04-06T10:28:21;5.67;;;4.27;;
13704;SDS011;6924;52.122;9.952;2023-04-06T10:30:49;4.90;;;4.50;;
13704;SDS011;6924;52.122;9.952;2023-04-06T10:33:22;4.63;;;4.23;;
13704;SDS011;6924;52.122;9.952;2023-04-06T10:35:49;4.23;;;3.93;;
13704;SDS011;6924;52.122;9.952;2023-04-06T10:38:15;5.30;;;4.80;;
13704;SDS011;6924;52.122;9.952;2023-04-06T10:40:46;4.73;;;4.33;;
13704;SDS011;6924;52.122;9.952;2023-04-06T10:43:18;6.23;;;4.73;;
13704;SDS011;6924;52.122;9.952;2023-04-06T10:45:52;5.37;;;4.70;;
13704;SDS011;6924;52.122;9.952;2023-04-06T10:48:20;5.47;;;4.97;;
13704;SDS011;6924;52.122;9.952;2023-04-06T10:50:47;5.77;;;5.27;;
13704;SDS011;6924;52.122;9.952;2023-04-06T10:53:20;5.10;;;4.60;;
13704;SDS011;6924;52.122;9.952;2023-04-06T10:55:49;5.47;;;4.23;;
13704;SDS011;6924;52.122;9.952;2023-04-06T10:58:17;5.60;;;5.10;;
13704;SDS011;6924;52.122;9.952;2023-04-06T11:00:44;7.77;;;5.00;;
13704;SDS011;6924;52.122;9.952;2023-04-06T11:03:11;5.40;;;4.80;;
13704;SDS011;6924;52.122;9.952;2023-04-06T11:05:37;5.40;;;5.00;;
13704;SDS011;6924;52.122;9.952;2023-04-06T11:08:03;5.10;;;4.70;;
13704;SDS011;6924;52.122;9.952;2023-04-06T11:10:30;5.30;;;4.80;;
13704;SDS011;6924;52.122;9.952;2023-04-06T11:12:57;5.47;;;4.97;;
13704;SDS011;6924;52.122;9.952;2023-04-06T11:15:24;5.37;;;4.97;;
13704;SDS011;6924;52.122;9.952;2023-04-06T11:17:51;5.73;;;5.33;;
13704;SDS011;6924;52.122;9.952;2023-04-06T11:20:17;5.53;;;4.97;;
13704;SDS011;6924;52.122;9.952;2023-04-06T11:22:48;5.43;;;5.03;;
13704;SDS011;6924;52.122;9.952;2023-04-06T11:25:16;4.80;;;4.30;;
13704;SDS011;6924;52.122;9.952;2023-04-06T11:27:43;5.93;;;5.43;;
13704;SDS011;6924;52.122;9.952;2023-04-06T11:30:10;6.13;;;5.63;;
13704;SDS011;6924;52.122;9.952;2023-04-06T11:32:40;6.10;;;5.60;;
13704;SDS011;6924;52.122;9.952;2023-04-06T11:35:10;6.00;;;5.47;;
13704;SDS011;6924;52.122;9.952;2023-04-06T11:37:38;8.87;;;6.07;;
13704;SDS011;6924;52.122;9.952;2023-04-06T11:40:07;6.60;;;6.00;;
13704;SDS011;6924;52.122;9.952;2023-04-06T11:42:34;6.60;;;6.10;;
13704;SDS011;6924;52.122;9.952;2023-04-06T11:45:01;6.40;;;5.90;;
13704;SDS011;6924;52.122;9.952;2023-04-06T11:47:28;8.17;;;5.93;;
13704;SDS011;6924;52.122;9.952;2023-04-06T11:50:04;6.77;;;6.17;;
13704;SDS011;6924;52.122;9.952;2023-04-06T11:52:32;6.33;;;5.83;;
13704;SDS011;6924;52.122;9.952;2023-04-06T11:54:58;6.87;;;6.27;;
13704;SDS011;6924;52.122;9.952;2023-04-06T11:57:24;6.47;;;6.00;;
13704;SDS011;6924;52.122;9.952;2023-04-06T11:59:51;6.13;;;5.73;;
13704;SDS011;6924;52.122;9.952;2023-04-06T12:02:18;6.97;;;6.20;;
13704;SDS011;6924;52.122;9.952;2023-04-06T12:04:45;6.67;;;6.07;;
13704;SDS011;6924;52.122;9.952;2023-04-06T12:07:13;6.97;;;6.27;;
13704;SDS011;6924;52.122;9.952;2023-04-06T12:09:39;6.57;;;5.97;;
13704;SDS011;6924;52.122;9.952;2023-04-06T12:12:06;6.77;;;6.17;;
13704;SDS011;6924;52.122;9.952;2023-04-06T12:14:32;7.23;;;6.53;;
13704;SDS011;6924;52.122;9.952;2023-04-06T12:16:58;6.40;;;5.90;;
13704;SDS011;6924;52.122;9.952;2023-04-06T12:19:25;7.63;;;7.03;;
13704;SDS011;6924;52.122;9.952;2023-04-06T12:21:51;5.93;;;5.47;;
13704;SDS011;6924;52.122;9.952;2023-04-06T12:24:20;6.43;;;5.83;;
13704;SDS011;6924;52.122;9.952;2023-04-06T12:26:47;6.03;;;5.50;;
13704;SDS011;6924;52.122;9.952;2023-04-06T12:29:13;6.30;;;5.80;;
13704;SDS011;6924;52.122;9.952;2023-04-06T12:31:40;6.10;;;5.70;;
13704;SDS011;6924;52.122;9.952;2023-04-06T12:34:08;6.40;;;5.90;;
13704;SDS011;6924;52.122;9.952;2023-04-06T12:36:34;5.87;;;5.27;;
13704;SDS011;6924;52.122;9.952;2023-04-06T12:39:00;6.30;;;5.80;;
13704;SDS011;6924;52.122;9.952;2023-04-06T12:41:29;6.27;;;5.87;;
13704;SDS011;6924;52.122;9.952;2023-04-06T12:43:55;6.10;;;5.50;;
13704;SDS011;6924;52.122;9.952;2023-04-06T12:46:24;6.20;;;5.70;;
13704;SDS011;6924;52.122;9.952;2023-04-06T12:48:51;7.07;;;6.40;;
13704;SDS011;6924;52.122;9.952;2023-04-06T12:51:18;5.63;;;5.23;;
13704;SDS011;6924;52.122;9.952;2023-04-06T12:53:45;6.37;;;5.87;;
13704;SDS011;6924;52.122;9.952;2023-04-06T12:56:11;7.10;;;5.50;;
13704;SDS011;6924;52.122;9.952;2023-04-06T12:58:40;5.93;;;5.43;;
13704;SDS011;6924;52.122;9.952;2023-04-06T13:01:07;6.43;;;5.83;;
13704;SDS011;6924;52.122;9.952;2023-04-06T13:03:34;6.03;;;5.57;;
13704;SDS011;6924;52.122;9.952;2023-04-06T13:06:01;5.40;;;4.73;;
13704;SDS011;6924;52.122;9.952;2023-04-06T13:08:28;6.13;;;5.60;;
13704;SDS011;6924;52.122;9.952;2023-04-06T13:10:54;5.03;;;4.67;;
13704;SDS011;6924;52.122;9.952;2023-04-06T13:13:22;5.53;;;5.13;;
13704;SDS011;6924;52.122;9.952;2023-04-06T13:15:50;4.87;;;4.47;;
13704;SDS011;6924;52.122;9.952;2023-04-06T13:18:17;6.77;;;6.07;;
13704;SDS011;6924;52.122;9.952;2023-04-06T13:20:43;8.40;;;5.13;;
13704;SDS011;6924;52.122;9.952;2023-04-06T13:23:10;5.30;;;4.80;;
13704;SDS011;6924;52.122;9.952;2023-04-06T13:25:36;5.70;;;5.13;;
13704;SDS011;6924;52.122;9.952;2023-04-06T13:28:03;6.53;;;5.53;;
13704;SDS011;6924;52.122;9.952;2023-04-06T13:30:29;5.67;;;5.10;;
13704;SDS011;6924;52.122;9.952;2023-04-06T13:32:57;7.73;;;5.90;;
13704;SDS011;6924;52.122;9.952;2023-04-06T13:35:23;5.70;;;5.20;;
13704;SDS011;6924;52.122;9.952;2023-04-06T13:37:50;6.00;;;5.40;;
13704;SDS011;6924;52.122;9.952;2023-04-06T13:40:18;5.83;;;4.87;;
13704;SDS011;6924;52.122;9.952;2023-04-06T13:42:45;5.30;;;4.90;;
13704;SDS011;6924;52.122;9.952;2023-04-06T13:45:12;4.63;;;4.33;;
13704;SDS011;6924;52.122;9.952;2023-04-06T13:47:39;5.57;;;4.57;;
13704;SDS011;6924;52.122;9.952;2023-04-06T13:50:07;8.00;;;5.57;;
13704;SDS011;6924;52.122;9.952;2023-04-06T13:52:34;5.73;;;5.23;;
13704;SDS011;6924;52.122;9.952;2023-04-06T13:55:02;6.10;;;5.57;;
13704;SDS011;6924;52.122;9.952;2023-04-06T13:57:28;5.90;;;5.40;;
13704;SDS011;6924;52.122;9.952;2023-04-06T13:59:55;5.40;;;4.90;;
13704;SDS011;6924;52.122;9.952;2023-04-06T14:02:21;6.67;;;5.03;;
13704;SDS011;6924;52.122;9.952;2023-04-06T14:04:52;5.47;;;4.97;;
13704;SDS011;6924;52.122;9.952;2023-04-06T14:07:20;4.83;;;4.43;;
13704;SDS011;6924;52.122;9.952;2023-04-06T14:09:47;6.20;;;4.13;;
13704;SDS011;6924;52.122;9.952;2023-04-06T14:12:13;5.37;;;4.87;;
13704;SDS011;6924;52.122;9.952;2023-04-06T14:14:40;4.83;;;4.43;;
13704;SDS011;6924;52.122;9.952;2023-04-06T14:17:06;5.20;;;4.80;;
13704;SDS011;6924;52.122;9.952;2023-04-06T14:19:33;5.63;;;5.13;;
13704;SDS011;6924;52.122;9.952;2023-04-06T14:21:59;5.63;;;5.13;;
13704;SDS011;6924;52.122;9.952;2023-04-06T14:24:27;4.97;;;4.57;;
13704;SDS011;6924;52.122;9.952;2023-04-06T14:26:53;5.70;;;5.20;;
13704;SDS011;6924;52.122;9.952;2023-04-06T14:29:21;5.73;;;5.20;;
13704;SDS011;6924;52.122;9.952;2023-04-06T14:31:47;6.10;;;5.07;;
13704;SDS011;6924;52.122;9.952;2023-04-06T14:34:14;7.17;;;5.27;;
13704;SDS011;6924;52.122;9.952;2023-04-06T14:36:41;5.20;;;4.80;;
13704;SDS011;6924;52.122;9.952;2023-04-06T14:39:08;6.30;;;5.80;;
13704;SDS011;6924;52.122;9.952;2023-04-06T14:41:36;5.83;;;5.33;;
13704;SDS011;6924;52.122;9.952;2023-04-06T14:44:03;6.07;;;5.57;;
13704;SDS011;6924;52.122;9.952;2023-04-06T14:46:29;8.10;;;5.20;;
13704;SDS011;6924;52.122;9.952;2023-04-06T14:48:57;6.17;;;5.67;;
13704;SDS011;6924;52.122;9.952;2023-04-06T14:51:24;5.70;;;5.10;;
13704;SDS011;6924;52.122;9.952;2023-04-06T14:53:52;5.83;;;5.33;;
13704;SDS011;6924;52.122;9.952;2023-04-06T14:56:19;6.13;;;5.03;;
13704;SDS011;6924;52.122;9.952;2023-04-06T14:58:48;7.40;;;5.23;;
13704;SDS011;6924;52.122;9.952;2023-04-06T15:01:15;5.43;;;4.93;;